Stony Rapids, Canada
Current Conditions -  °F | °C
As of 1:00 AM on Friday 24 Oct 2014 (Local Time) from CYSF Reporting Station
Light Rain Light Rain  
Wind Chill: 30°   Ceiling: 1200
Heat Index: 37°   Visibility: 9mi
Dew Point: 36°   Wind: 12mph
Humidity: 93%   Direction: 90°E
Pressure: 29.47"   Gusts: 20mph
Location:  59.27°N, 105.83°W
Report Text: CYSF 240700Z AUTO 09010G17KT 9SM -RA OVC012 03/02 A2947 RMK PCPN 0.5MM PAST HR SLP992
Loading
Personal Weather Stations






























Interactive Weather Map
Tropical Storm Tracking
New forecast layout! Learn more

10-Day Weather Forecast

Advertisements
Track Severe Weather on mobile